Romoe Maersk — OXLC2 — position and weather

sailwx.info

Track history (hours):
 
Tides and Currents Weather Stations Pressure Air Temp Water Temp Dewpoint Dewpoint Depression Visibility Wind Speed Wind Dir Waves Ship Positions

Romoe Maersk

Last reported at 2016-Aug-21 00:33 UTC. Time now 2016-Aug-29 01:54 UTC.
Position S 27°01' E 153°51'.
Warning: this ship's position is 8 days out of date.

Length 171 m; draft 7.7 m.

Type: Ship. MMSI: 220209000.

Date/timePositionNaut miles runAvg speedWind from/ knotsBaromVisibWave heightAir tempDewpointWater temp
2016-Aug-21 00:33S 27°01' E 153°51'13 8.9
2016-Aug-20 23:07S 26°51' E 153°42'4 7.3
2016-Aug-20 22:32S 26°48' E 153°39'7 7.0
2016-Aug-20 21:33S 26°45' E 153°32'8 7.4
2016-Aug-20 20:27S 26°44' E 153°23'7 7.6
2016-Aug-20 19:33S 26°43' E 153°15'6 5.6
2016-Aug-20 18:33S 26°46' E 153°11'1312.9
2016-Aug-20 17:34S 26°59' E 153°14'1413.9
2016-Aug-20 16:34S 27°12' E 153°21'1212.3
2016-Aug-20 15:33S 27°21' E 153°11'3 0.4
2016-Aug-20 08:25S 27°23' E 153°10'0 0.0
2016-Aug-20 06:25S 27°23' E 153°10'0 0.0
2016-Aug-20 04:16S 27°23' E 153°10'0 0.0
2016-Aug-20 03:31S 27°23' E 153°10'0 0.0
2016-Aug-20 02:13S 27°23' E 153°10'0 0.0
2016-Aug-19 23:07S 27°23' E 153°10'0 0.0
2016-Aug-19 22:31S 27°23' E 153°10'0 0.0
2016-Aug-19 21:31S 27°23' E 153°10'0 0.0
2016-Aug-19 18:31S 27°23' E 153°10'0 0.0
2016-Aug-19 08:33S 27°23' E 153°10'8 7.8
2016-Aug-19 07:33S 27°17' E 153°15'1111.2
2016-Aug-19 06:33S 27°07' E 153°20'1111.5
2016-Aug-19 05:33S 26°57' E 153°13'9 9.3
2016-Aug-19 04:33S 26°48' E 153°11'9 6.2
2016-Aug-19 03:08S 26°40' E 153°16'  
Track history (hours):
 
Tides and Currents Weather Stations Pressure Air Temp Water Temp Dewpoint Dewpoint Depression Visibility Wind Speed Wind Dir Waves Ship Positions

Romoe Maersk

Last reported at 2016-Aug-21 00:33 UTC. Time now 2016-Aug-29 01:54 UTC.
Position S 27°01' E 153°51'.
Warning: this ship's position is 8 days out of date.

Length 171 m; draft 7.7 m.

Type: Ship. MMSI: 220209000.

Date/timePositionNaut miles runAvg speedWind from/ knotsBaromVisibWave heightAir tempDewpointWater temp
2016-Aug-21 00:33S 27°01' E 153°51'13 8.9
2016-Aug-20 23:07S 26°51' E 153°42'4 7.3
2016-Aug-20 22:32S 26°48' E 153°39'7 7.0
2016-Aug-20 21:33S 26°45' E 153°32'8 7.4
2016-Aug-20 20:27S 26°44' E 153°23'7 7.6
2016-Aug-20 19:33S 26°43' E 153°15'6 5.6
2016-Aug-20 18:33S 26°46' E 153°11'1312.9
2016-Aug-20 17:34S 26°59' E 153°14'1413.9
2016-Aug-20 16:34S 27°12' E 153°21'1212.3
2016-Aug-20 15:33S 27°21' E 153°11'3 0.4
2016-Aug-20 08:25S 27°23' E 153°10'0 0.0
2016-Aug-20 06:25S 27°23' E 153°10'0 0.0
2016-Aug-20 04:16S 27°23' E 153°10'0 0.0
2016-Aug-20 03:31S 27°23' E 153°10'0 0.0
2016-Aug-20 02:13S 27°23' E 153°10'0 0.0
2016-Aug-19 23:07S 27°23' E 153°10'0 0.0
2016-Aug-19 22:31S 27°23' E 153°10'0 0.0
2016-Aug-19 21:31S 27°23' E 153°10'0 0.0
2016-Aug-19 18:31S 27°23' E 153°10'0 0.0
2016-Aug-19 08:33S 27°23' E 153°10'8 7.8
2016-Aug-19 07:33S 27°17' E 153°15'1111.2
2016-Aug-19 06:33S 27°07' E 153°20'1111.5
2016-Aug-19 05:33S 26°57' E 153°13'9 9.3
2016-Aug-19 04:33S 26°48' E 153°11'9 6.2
2016-Aug-19 03:08S 26°40' E 153°16'  

Dump ship's entire track history